Time;durP1;ratioP1;P1;durP2;ratioP2;P2;SDS_P1;SDS_P2;PMS_P1;PMS_P2;Temp;Humidity;BMP_temperature;BMP_pressure;BME280_temperature;BME280_humidity;BME280_pressure;Samples;Min_cycle;Max_cycle;Signal;HPM_P1;HPM_P2
2024/03/04 06:02:07;;;;;;;21.80;12.10;;;8.80;94.00;;;;;;4123795;23;20096;-85
2024/03/04 06:04:08;;;;;;;20.90;12.73;;;8.70;94.10;;;;;;4071877;29;20052;-85
2024/03/04 06:06:11;;;;;;;19.08;11.70;;;8.80;93.90;;;;;;4071654;29;20044;-84
2024/03/04 06:08:14;;;;;;;21.08;12.63;;;8.80;93.90;;;;;;4069772;29;20144;-85
2024/03/04 06:10:16;;;;;;;18.50;12.60;;;8.80;93.80;;;;;;4052418;29;20056;-84
2024/03/04 06:12:18;;;;;;;20.45;12.70;;;8.80;94.00;;;;;;4069082;29;20060;-82
2024/03/04 06:14:22;;;;;;;21.92;14.15;;;8.70;94.10;;;;;;4068754;29;20052;-84
2024/03/04 06:16:24;;;;;;;19.70;12.43;;;8.60;94.30;;;;;;4068967;29;20359;-84
2024/03/04 06:18:27;;;;;;;19.15;12.35;;;8.70;94.30;;;;;;4069027;29;20063;-85
2024/03/04 06:20:29;;;;;;;19.63;12.35;;;8.80;94.20;;;;;;4071795;29;20470;-83
2024/03/04 06:22:31;;;;;;;20.63;12.73;;;8.80;94.10;;;;;;4071985;29;20052;-85
2024/03/04 06:24:34;;;;;;;20.08;12.15;;;8.80;94.10;;;;;;4071568;29;20052;-86
2024/03/04 06:26:35;;;;;;;19.40;12.60;;;8.80;94.10;;;;;;4070698;29;20406;-88
2024/03/04 06:28:38;;;;;;;19.58;12.50;;;8.80;94.00;;;;;;4072003;29;20112;-85
2024/03/04 06:30:41;;;;;;;20.83;12.30;;;8.70;94.20;;;;;;4071825;29;20048;-88
2024/03/04 06:32:44;;;;;;;20.00;13.07;;;8.70;94.10;;;;;;4071845;29;20490;-89
2024/03/04 06:34:47;;;;;;;20.80;12.90;;;8.60;94.30;;;;;;4071773;29;20071;-87
2024/03/04 06:36:49;;;;;;;21.90;13.38;;;8.60;94.70;;;;;;4071910;29;20456;-86
2024/03/04 06:38:51;;;;;;;22.02;13.75;;;8.60;94.60;;;;;;4071461;29;20115;-85
2024/03/04 06:40:53;;;;;;;21.35;13.23;;;8.70;94.50;;;;;;4071509;29;20052;-85
2024/03/04 06:42:55;;;;;;;18.95;12.30;;;8.70;94.40;;;;;;4071544;29;20517;-84
2024/03/04 06:44:57;;;;;;;20.90;12.38;;;8.80;94.20;;;;;;4071595;29;20048;-84
2024/03/04 06:46:58;;;;;;;21.10;13.07;;;8.80;94.20;;;;;;4071408;29;20060;-82
2024/03/04 06:49:00;;;;;;;19.45;11.82;;;8.80;94.10;;;;;;4078862;29;20115;-83
2024/03/04 06:51:04;;;;;;;20.23;12.38;;;8.80;94.20;;;;;;4081246;29;20470;-82
2024/03/04 06:53:05;;;;;;;21.73;12.85;;;8.80;94.10;;;;;;4078504;29;20052;-85
2024/03/04 06:55:08;;;;;;;20.33;12.52;;;8.80;94.10;;;;;;4065483;29;20059;-85
2024/03/04 06:57:10;;;;;;;21.13;13.23;;;8.90;94.20;;;;;;4082633;29;20119;-81
2024/03/04 06:59:12;;;;;;;23.55;14.43;;;8.70;94.40;;;;;;4076279;29;20048;-82
2024/03/04 07:01:16;;;;;;;22.02;13.23;;;8.60;94.60;;;;;;4073138;29;20071;-82
2024/03/04 07:03:18;;;;;;;22.58;13.68;;;8.60;94.80;;;;;;4075266;29;20431;-84
2024/03/04 07:05:19;;;;;;;21.17;13.13;;;8.50;95.00;;;;;;4076325;29;20080;-83
2024/03/04 07:07:24;;;;;;;20.40;13.32;;;8.60;94.90;;;;;;4076448;29;20052;-82
2024/03/04 07:09:27;;;;;;;24.33;14.02;;;8.60;95.00;;;;;;4062828;29;20056;-81
2024/03/04 07:11:30;;;;;;;23.75;14.30;;;8.50;95.20;;;;;;4075139;29;20059;-83
2024/03/04 07:13:33;;;;;;;22.13;13.73;;;8.50;95.50;;;;;;4082181;29;20048;-83
2024/03/04 07:15:42;;;;;;;24.33;14.32;;;8.40;95.80;;;;;;4065706;29;20049;-82
2024/03/04 07:17:44;;;;;;;26.05;15.05;;;8.40;95.70;;;;;;4065386;29;20052;-83
2024/03/04 07:19:49;;;;;;;26.23;15.40;;;8.40;95.60;;;;;;4087150;29;20048;-82
2024/03/04 07:21:51;;;;;;;24.27;14.77;;;8.30;95.70;;;;;;4062145;29;20052;-82
2024/03/04 07:23:55;;;;;;;26.73;14.57;;;8.30;95.90;;;;;;4078157;29;20048;-82
2024/03/04 07:25:57;;;;;;;26.90;15.52;;;8.40;95.80;;;;;;4075599;29;20052;-82
2024/03/04 07:27:58;;;;;;;26.02;15.18;;;8.40;95.90;;;;;;4075469;29;20063;-84
2024/03/04 07:30:00;;;;;;;25.60;14.43;;;8.30;96.10;;;;;;4075707;29;20054;-83
2024/03/04 07:32:02;;;;;;;24.45;14.57;;;8.30;96.20;;;;;;4074413;29;20439;-83
2024/03/04 07:34:08;;;;;;;25.95;15.23;;;8.30;96.20;;;;;;4074297;29;20128;-83
2024/03/04 07:36:10;;;;;;;27.00;15.10;;;8.30;96.10;;;;;;4072993;29;20048;-82
2024/03/04 07:38:12;;;;;;;26.30;15.40;;;8.40;96.10;;;;;;4073275;29;20091;-84
2024/03/04 07:40:15;;;;;;;25.15;15.27;;;8.40;96.00;;;;;;4078155;29;20045;-82
2024/03/04 07:42:19;;;;;;;24.42;14.68;;;8.40;95.90;;;;;;4073849;29;20056;-82
2024/03/04 07:44:21;;;;;;;27.40;15.55;;;8.40;96.10;;;;;;4077105;29;20052;-84
2024/03/04 07:46:24;;;;;;;27.60;15.93;;;8.40;96.20;;;;;;4079288;29;20084;-83
2024/03/04 07:48:26;;;;;;;28.27;15.80;;;8.40;96.30;;;;;;4078325;29;20573;-82
2024/03/04 07:50:27;;;;;;;25.77;15.65;;;8.40;96.40;;;;;;4080918;29;20056;-83
2024/03/04 07:52:31;;;;;;;26.48;15.48;;;8.40;96.40;;;;;;4075049;29;20064;-85
2024/03/04 07:54:32;;;;;;;26.67;15.32;;;8.40;96.40;;;;;;4074326;29;20056;-83
2024/03/04 07:56:36;;;;;;;28.88;16.17;;;8.40;96.50;;;;;;4075885;29;20083;-85
2024/03/04 07:58:38;;;;;;;27.70;16.15;;;8.50;96.50;;;;;;4072978;29;20048;-84
2024/03/04 08:00:40;;;;;;;30.02;16.42;;;8.50;96.50;;;;;;4077158;29;20056;-86
2024/03/04 08:02:43;;;;;;;30.25;16.23;;;8.50;96.60;;;;;;4082637;29;20075;-84
2024/03/04 08:04:46;;;;;;;30.65;17.13;;;8.40;96.60;;;;;;4083796;29;20403;-84
2024/03/04 08:06:50;;;;;;;29.75;16.42;;;8.50;96.60;;;;;;4082351;29;20048;-83
2024/03/04 08:08:52;;;;;;;34.20;17.20;;;8.40;96.80;;;;;;4084284;29;20072;-82
2024/03/04 08:10:55;;;;;;;33.10;17.20;;;8.40;96.90;;;;;;4080657;29;20052;-84
2024/03/04 08:12:59;;;;;;;31.20;17.15;;;8.50;96.80;;;;;;4082880;29;20052;-83
2024/03/04 08:15:06;;;;;;;34.13;17.77;;;8.50;97.00;;;;;;4083319;29;20116;-82
2024/03/04 08:17:10;;;;;;;29.35;17.15;;;8.40;97.20;;;;;;4082094;29;20059;-83
2024/03/04 08:19:21;;;;;;;31.88;17.02;;;8.50;97.60;;;;;;4083626;29;20056;-82
2024/03/04 08:21:24;;;;;;;34.45;18.08;;;8.60;97.10;;;;;;4082226;29;20051;-84
2024/03/04 08:23:30;;;;;;;33.85;17.13;;;8.50;97.30;;;;;;4084684;29;20044;-85
2024/03/04 08:25:32;;;;;;;33.80;18.58;;;8.50;97.40;;;;;;4080060;29;20139;-83
2024/03/04 08:27:34;;;;;;;35.13;18.42;;;8.50;97.50;;;;;;4077049;29;20052;-83
2024/03/04 08:29:37;;;;;;;34.15;18.02;;;8.50;97.50;;;;;;4073942;29;20059;-85
2024/03/04 08:31:39;;;;;;;35.70;18.30;;;8.40;97.80;;;;;;4073643;29;20056;-87
2024/03/04 08:33:41;;;;;;;38.55;18.88;;;8.40;97.80;;;;;;4074783;29;20072;-87
2024/03/04 08:35:43;;;;;;;34.63;18.63;;;8.40;98.00;;;;;;4071002;29;20099;-84
2024/03/04 08:37:45;;;;;;;36.10;18.83;;;8.40;98.10;;;;;;4074254;29;20111;-84
2024/03/04 08:39:48;;;;;;;36.60;19.55;;;8.40;98.10;;;;;;4071901;29;20512;-85
2024/03/04 08:41:50;;;;;;;36.47;19.25;;;8.50;98.20;;;;;;4072024;29;20107;-84
2024/03/04 08:43:52;;;;;;;36.45;19.95;;;8.40;98.40;;;;;;4074170;29;20047;-82
2024/03/04 08:45:56;;;;;;;43.85;20.77;;;8.40;98.70;;;;;;4068103;29;20056;-83
2024/03/04 08:47:58;;;;;;;37.90;19.30;;;8.50;98.70;;;;;;4075472;29;20470;-86
2024/03/04 08:50:01;;;;;;;40.85;20.17;;;8.50;98.70;;;;;;4075790;29;20494;-86
2024/03/04 08:52:04;;;;;;;34.45;18.10;;;8.50;98.70;;;;;;4054878;29;20084;-86
2024/03/04 08:54:06;;;;;;;42.15;20.13;;;8.50;98.90;;;;;;4071226;29;20063;-86
2024/03/04 08:56:08;;;;;;;39.60;20.02;;;8.40;99.00;;;;;;4070560;29;20047;-78
2024/03/04 08:58:10;;;;;;;38.75;19.35;;;8.40;99.30;;;;;;4069350;29;20055;-76
2024/03/04 09:00:14;;;;;;;38.35;18.95;;;8.50;99.40;;;;;;4076853;29;20052;-80
2024/03/04 09:02:17;;;;;;;42.05;20.60;;;8.60;99.00;;;;;;4080508;29;20052;-81
2024/03/04 09:04:19;;;;;;;41.35;20.92;;;8.60;99.20;;;;;;4073715;29;20044;-84
2024/03/04 09:06:22;;;;;;;41.00;20.52;;;8.60;99.30;;;;;;4067057;29;20053;-84
2024/03/04 09:08:24;;;;;;;40.08;21.30;;;8.50;99.40;;;;;;4043513;29;20057;-84
2024/03/04 09:10:26;;;;;;;39.85;20.25;;;8.60;99.40;;;;;;4044996;29;20100;-84
2024/03/04 09:12:29;;;;;;;40.20;20.50;;;8.50;99.10;;;;;;4063327;29;20092;-84
2024/03/04 09:14:31;;;;;;;40.88;20.52;;;8.50;99.40;;;;;;4077558;29;20043;-83
2024/03/04 09:16:35;;;;;;;47.50;21.80;;;8.60;99.40;;;;;;4087428;29;20474;-87
2024/03/04 09:18:43;;;;;;;41.78;22.02;;;8.60;99.50;;;;;;4087388;29;20051;-85
2024/03/04 09:20:45;;;;;;;42.55;20.38;;;8.60;99.50;;;;;;4087516;29;20056;-84
2024/03/04 09:22:47;;;;;;;42.25;20.98;;;8.70;99.20;;;;;;4073544;29;20462;-83
2024/03/04 09:24:49;;;;;;;37.55;18.85;;;8.70;99.10;;;;;;4092037;29;20079;-82
2024/03/04 09:26:55;;;;;;;38.55;19.70;;;8.70;98.60;;;;;;4095337;29;20051;-85
2024/03/04 09:28:59;;;;;;;40.72;20.25;;;8.90;98.50;;;;;;4092467;29;20059;-86
2024/03/04 09:31:09;;;;;;;43.13;22.35;;;8.70;98.50;;;;;;4075500;29;20142;-84
2024/03/04 09:33:13;;;;;;;41.40;20.25;;;8.70;98.60;;;;;;4055915;29;20100;-84
2024/03/04 09:35:19;;;;;;;40.28;20.77;;;8.70;98.50;;;;;;4085034;29;20059;-82
2024/03/04 09:37:21;;;;;;;41.95;20.52;;;8.70;98.60;;;;;;4083386;29;20055;-82
2024/03/04 09:39:23;;;;;;;41.15;19.85;;;8.60;98.60;;;;;;4084097;29;20106;-82
2024/03/04 09:41:25;;;;;;;42.17;21.38;;;8.60;99.10;;;;;;4084544;29;20110;-83
2024/03/04 09:45:45;;;;;;;40.67;20.30;;;8.50;98.80;;;;;;4084361;29;20056;-83
2024/03/04 09:48:02;;;;;;;41.65;20.63;;;8.50;99.00;;;;;;4083683;29;20084;-84
2024/03/04 09:50:05;;;;;;;41.25;21.20;;;8.60;99.00;;;;;;4071820;29;20059;-85
2024/03/04 09:52:09;;;;;;;44.80;21.08;;;8.60;99.10;;;;;;4075300;29;20048;-82
2024/03/04 09:54:14;;;;;;;42.92;20.58;;;8.60;99.00;;;;;;4086855;29;20059;-83
2024/03/04 09:56:15;;;;;;;44.33;21.10;;;8.60;98.90;;;;;;4090664;29;20087;-84
2024/03/04 09:58:17;;;;;;;42.70;20.33;;;8.60;98.70;;;;;;4079585;29;20052;-87
2024/03/04 10:00:20;;;;;;;37.72;19.33;;;8.70;98.70;;;;;;4092797;29;20056;-82
2024/03/04 10:02:24;;;;;;;42.38;20.65;;;8.70;98.80;;;;;;4075284;29;20060;-84
2024/03/04 10:04:26;;;;;;;42.00;20.27;;;8.70;98.60;;;;;;4090258;29;20078;-82
2024/03/04 10:06:28;;;;;;;42.97;20.77;;;8.70;98.60;;;;;;4090095;29;20118;-81
2024/03/04 10:08:32;;;;;;;40.42;21.08;;;8.80;98.20;;;;;;4091014;29;20059;-82
2024/03/04 10:10:34;;;;;;;40.13;20.33;;;8.80;98.20;;;;;;4074225;29;20052;-82
2024/03/04 10:12:35;;;;;;;45.50;21.83;;;8.90;98.20;;;;;;4083056;29;20454;-83
2024/03/04 10:15:09;;;;;;;41.97;20.60;;;9.00;97.90;;;;;;4076032;29;20470;-79
2024/03/04 10:17:12;;;;;;;44.58;21.48;;;9.00;97.80;;;;;;4076648;29;20062;-78
2024/03/04 10:19:20;;;;;;;41.38;21.27;;;9.10;97.60;;;;;;4047591;29;20049;-82
2024/03/04 10:21:22;;;;;;;42.80;21.63;;;9.10;97.40;;;;;;4076061;29;20056;-85
2024/03/04 10:23:24;;;;;;;40.83;21.10;;;9.20;97.10;;;;;;4058093;29;20082;-85
2024/03/04 10:25:28;;;;;;;41.38;21.17;;;9.30;97.10;;;;;;4074174;29;20068;-82
2024/03/04 10:27:29;;;;;;;42.03;21.10;;;9.30;96.50;;;;;;4073262;29;20111;-85
2024/03/04 10:29:32;;;;;;;46.53;21.90;;;9.20;96.50;;;;;;4094496;29;20107;-84
2024/03/04 10:31:40;;;;;;;44.55;21.85;;;9.30;96.50;;;;;;4089530;29;20051;-83
2024/03/04 10:33:42;;;;;;;43.35;22.15;;;9.40;96.40;;;;;;4089735;29;20482;-83
2024/03/04 10:35:44;;;;;;;39.67;21.27;;;9.40;96.20;;;;;;4088876;29;20150;-84
2024/03/04 10:37:48;;;;;;;44.13;22.00;;;9.40;96.10;;;;;;4075889;29;20055;-82
2024/03/04 10:39:49;;;;;;;45.30;21.70;;;9.50;95.90;;;;;;4081288;29;20072;-84
2024/03/04 10:41:53;;;;;;;46.65;21.40;;;9.40;96.10;;;;;;4101838;29;20521;-84
2024/03/04 10:43:55;;;;;;;42.50;21.45;;;9.40;96.00;;;;;;4099236;29;20052;-83
2024/03/04 10:46:02;;;;;;;47.22;22.67;;;9.40;96.10;;;;;;4095106;29;20115;-83
2024/03/04 10:48:05;;;;;;;44.67;22.80;;;9.40;96.10;;;;;;4080337;29;20056;-83
2024/03/04 10:50:09;;;;;;;43.67;22.33;;;9.30;96.20;;;;;;4074333;29;20059;-84
2024/03/04 10:54:28;;;;;;;46.50;21.92;;;9.30;96.10;;;;;;4078970;29;20058;-82
2024/03/04 10:56:32;;;;;;;48.47;23.27;;;9.30;96.20;;;;;;4093306;29;20055;-84
2024/03/04 10:58:43;;;;;;;48.13;23.13;;;9.20;96.30;;;;;;4097866;29;20119;-85
2024/03/04 11:00:54;;;;;;;44.92;21.20;;;9.20;96.60;;;;;;4092914;29;20056;-83
2024/03/04 11:03:09;;;;;;;39.80;21.10;;;9.10;97.10;;;;;;4066800;29;20120;-85
2024/03/04 11:05:11;;;;;;;;;;;9.10;96.80;;;;;;4070298;29;20490;-86
2024/03/04 11:07:15;;;;;;;44.63;22.27;;;9.10;97.00;;;;;;4092401;29;20340;-84
2024/03/04 11:09:18;;;;;;;42.63;21.23;;;9.10;96.80;;;;;;4095679;29;20055;-83
2024/03/04 11:11:29;;;;;;;40.90;20.35;;;9.10;96.80;;;;;;4076038;29;20088;-84
2024/03/04 11:13:43;;;;;;;41.38;20.85;;;9.10;97.00;;;;;;4079511;29;20123;-84
2024/03/04 11:15:58;;;;;;;39.80;21.10;;;9.10;97.00;;;;;;4082128;29;20052;-85
2024/03/04 11:18:04;;;;;;;43.50;21.75;;;9.10;97.00;;;;;;4082477;29;20426;-82
2024/03/04 11:20:09;;;;;;;57.40;27.63;;;9.20;96.90;;;;;;4075296;29;20132;-84
2024/03/04 11:22:14;;;;;;;38.55;19.92;;;9.30;96.90;;;;;;4089328;29;20044;-83
2024/03/04 11:24:17;;;;;;;37.70;19.00;;;9.30;96.70;;;;;;4076151;29;20052;-83
2024/03/04 11:26:22;;;;;;;36.67;18.10;;;9.40;96.80;;;;;;4077247;29;20319;-82
2024/03/04 11:28:26;;;;;;;32.40;17.73;;;9.40;96.80;;;;;;4092676;29;20413;-83
2024/03/04 11:30:29;;;;;;;39.28;19.05;;;9.40;96.60;;;;;;4092782;29;20299;-83
2024/03/04 11:32:31;;;;;;;37.92;19.80;;;9.40;96.70;;;;;;4095245;29;20048;-83
2024/03/04 11:35:05;;;;;;;39.35;18.52;;;9.40;96.50;;;;;;4092845;29;20051;-85
2024/03/04 11:37:10;;;;;;;34.03;17.13;;;9.50;96.30;;;;;;4097534;29;20079;-82
2024/03/04 11:39:16;;;;;;;34.55;17.90;;;9.40;96.50;;;;;;4098129;29;20051;-83
2024/03/04 11:41:40;;;;;;;39.70;18.63;;;9.30;96.50;;;;;;4094221;29;20063;-83
2024/03/04 11:43:48;;;;;;;31.90;17.15;;;9.30;96.80;;;;;;4098037;29;20115;-83
2024/03/04 11:45:54;;;;;;;34.75;17.13;;;9.30;96.80;;;;;;4094111;29;20055;-82
2024/03/04 11:47:55;;;;;;;35.42;17.25;;;9.30;96.70;;;;;;4088699;29;20059;-81
2024/03/04 11:49:58;;;;;;;34.17;17.38;;;9.30;96.80;;;;;;4095110;29;20047;-83
2024/03/04 11:52:04;;;;;;;32.80;16.17;;;9.30;96.70;;;;;;4090600;29;20142;-84
2024/03/04 11:54:07;;;;;;;31.27;16.15;;;9.20;96.90;;;;;;4091196;29;20064;-83
2024/03/04 11:56:08;;;;;;;32.53;16.33;;;9.20;97.00;;;;;;4093482;29;20062;-84
2024/03/04 11:58:11;;;;;;;29.63;15.60;;;9.30;96.90;;;;;;4073866;29;20470;-84
2024/03/04 12:00:17;;;;;;;29.73;14.98;;;9.40;96.80;;;;;;4077938;29;20128;-85
2024/03/04 12:02:24;;;;;;;32.67;16.65;;;9.40;96.50;;;;;;4058547;29;20064;-83
2024/03/04 12:04:28;;;;;;;30.77;15.63;;;9.50;96.40;;;;;;4058456;29;20052;-83
2024/03/04 12:06:31;;;;;;;26.83;13.70;;;9.50;96.10;;;;;;4058751;29;20112;-83
2024/03/04 12:08:34;;;;;;;27.35;14.68;;;9.50;96.10;;;;;;4051457;29;20059;-85
2024/03/04 12:10:36;;;;;;;25.63;14.07;;;9.50;96.10;;;;;;4046550;29;20073;-86
2024/03/04 12:12:39;;;;;;;24.98;13.35;;;9.60;96.00;;;;;;4046951;29;20468;-87
2024/03/04 12:14:42;;;;;;;25.10;13.57;;;9.60;95.90;;;;;;4039594;29;20170;-86
2024/03/04 12:16:44;;;;;;;25.70;12.93;;;9.70;95.90;;;;;;4039699;29;20193;-87
2024/03/04 12:18:50;;;;;;;25.63;12.63;;;9.60;95.80;;;;;;4039009;29;20088;-85
2024/03/04 12:20:53;;;;;;;26.15;14.18;;;9.70;95.70;;;;;;4040884;29;20052;-81
2024/03/04 12:22:54;;;;;;;22.98;12.40;;;9.60;95.70;;;;;;4039063;29;20057;-82
2024/03/04 12:25:05;;;;;;;25.20;13.48;;;9.70;95.60;;;;;;4038872;29;20053;-82
2024/03/04 12:27:09;;;;;;;25.33;12.90;;;9.60;95.60;;;;;;4038685;29;20522;-83
2024/03/04 12:29:12;;;;;;;27.92;13.27;;;9.60;95.60;;;;;;4040169;29;20081;-81
2024/03/04 12:31:14;;;;;;;27.25;13.10;;;9.60;95.70;;;;;;4038807;29;20053;-80
2024/03/04 12:33:17;;;;;;;25.13;12.50;;;9.60;95.70;;;;;;4040611;29;20057;-82
2024/03/04 12:35:25;;;;;;;26.35;12.50;;;9.70;95.60;;;;;;4044642;29;20065;-81
2024/03/04 12:37:30;;;;;;;25.88;13.63;;;9.70;95.60;;;;;;4045523;29;20116;-82
2024/03/04 12:39:33;;;;;;;26.20;13.10;;;9.80;95.40;;;;;;4023766;29;20625;-83
2024/03/04 12:41:34;;;;;;;28.50;13.00;;;9.70;95.20;;;;;;4026218;29;20052;-83
2024/03/04 12:43:36;;;;;;;23.45;12.32;;;9.70;95.20;;;;;;4038992;29;20120;-82
2024/03/04 12:45:38;;;;;;;23.98;12.40;;;9.80;95.10;;;;;;4041465;29;20447;-82
2024/03/04 12:47:41;;;;;;;25.23;13.15;;;9.80;95.00;;;;;;4040377;29;20064;-82
2024/03/04 12:49:44;;;;;;;26.25;13.13;;;9.70;95.00;;;;;;4023231;29;20065;-80
2024/03/04 12:51:47;;;;;;;23.75;12.65;;;9.60;95.40;;;;;;4041326;29;20093;-80
2024/03/04 12:53:48;;;;;;;23.00;12.18;;;9.60;95.30;;;;;;4040790;29;20053;-83
2024/03/04 12:55:50;;;;;;;23.50;12.30;;;9.70;95.30;;;;;;4041352;29;20049;-84
2024/03/04 12:57:52;;;;;;;26.83;13.23;;;9.60;95.30;;;;;;4039382;29;20487;-83
2024/03/04 12:59:58;;;;;;;26.90;13.85;;;9.70;95.20;;;;;;4038405;29;20419;-84
2024/03/04 13:02:00;;;;;;;26.52;13.73;;;9.70;95.10;;;;;;4054729;29;20064;-84
2024/03/04 13:04:04;;;;;;;27.10;13.88;;;9.70;95.20;;;;;;4042512;29;20049;-81
2024/03/04 13:06:06;;;;;;;26.52;13.38;;;9.70;95.20;;;;;;4075103;29;20052;-82
2024/03/04 13:08:11;;;;;;;29.83;13.55;;;9.80;95.10;;;;;;4073949;29;20055;-82
2024/03/04 13:10:14;;;;;;;27.80;13.93;;;9.80;95.10;;;;;;4069441;29;20062;-81
2024/03/04 13:12:16;;;;;;;27.23;13.98;;;9.80;95.00;;;;;;4069330;29;20116;-83
2024/03/04 13:14:19;;;;;;;29.15;14.82;;;9.80;95.10;;;;;;4070640;29;20062;-84
2024/03/04 13:16:21;;;;;;;29.20;13.75;;;9.80;95.20;;;;;;4068381;29;20052;-83
2024/03/04 13:18:23;;;;;;;25.92;14.43;;;9.70;95.30;;;;;;4070467;29;20100;-84
2024/03/04 13:20:24;;;;;;;30.98;15.23;;;9.70;95.40;;;;;;4069060;29;20490;-83
2024/03/04 13:22:26;;;;;;;28.90;15.10;;;9.60;95.50;;;;;;4069489;29;20052;-83
2024/03/04 13:24:30;;;;;;;26.70;14.18;;;9.60;95.50;;;;;;4038265;29;20088;-83
2024/03/04 13:26:32;;;;;;;27.05;14.25;;;9.70;95.40;;;;;;4071460;29;20056;-83
2024/03/04 13:28:34;;;;;;;29.10;14.35;;;9.70;95.30;;;;;;4066952;29;20139;-82
2024/03/04 13:30:36;;;;;;;29.17;13.65;;;9.60;95.50;;;;;;4067194;29;20120;-81
2024/03/04 13:32:39;;;;;;;26.08;13.60;;;9.60;95.70;;;;;;4067929;29;20056;-83
2024/03/04 13:34:43;;;;;;;25.48;13.70;;;9.60;95.70;;;;;;4068196;29;20055;-83
2024/03/04 13:36:46;;;;;;;25.08;13.77;;;9.60;95.90;;;;;;4067368;29;20520;-83
2024/03/04 13:38:48;;;;;;;26.98;13.80;;;9.60;95.80;;;;;;4067556;29;20612;-83
2024/03/04 13:40:51;;;;;;;28.63;14.52;;;9.60;95.80;;;;;;4067596;29;20071;-82
2024/03/04 13:42:53;;;;;;;25.83;13.73;;;9.50;96.10;;;;;;4066750;29;20052;-83
2024/03/04 13:44:55;;;;;;;32.40;14.70;;;9.50;96.10;;;;;;4067456;29;20656;-81
2024/03/04 13:46:57;;;;;;;31.00;15.05;;;9.50;96.10;;;;;;4067957;29;20062;-82
2024/03/04 13:48:59;;;;;;;29.20;13.88;;;9.40;96.30;;;;;;4068419;29;20044;-82
2024/03/04 13:51:02;;;;;;;28.20;14.32;;;9.40;96.30;;;;;;4065035;29;20052;-81
2024/03/04 13:53:05;;;;;;;27.88;14.18;;;9.50;96.20;;;;;;4067255;29;20060;-80
2024/03/04 13:55:08;;;;;;;28.50;14.95;;;9.50;96.10;;;;;;4066512;29;20052;-83
2024/03/04 13:57:10;;;;;;;29.60;13.82;;;9.50;96.10;;;;;;4067845;29;20139;-82
2024/03/04 13:59:13;;;;;;;26.73;14.18;;;9.50;96.10;;;;;;4068341;29;20458;-83
2024/03/04 14:01:14;;;;;;;32.22;15.35;;;9.50;96.20;;;;;;4068412;29;20062;-85
2024/03/04 14:03:16;;;;;;;28.50;14.55;;;9.60;96.10;;;;;;4069622;29;20056;-84
2024/03/04 14:05:18;;;;;;;27.77;14.43;;;9.60;95.90;;;;;;4069017;29;20457;-82
2024/03/04 14:07:20;;;;;;;34.70;15.88;;;9.70;95.70;;;;;;4066926;29;20091;-82
2024/03/04 14:09:23;;;;;;;27.77;14.32;;;9.70;95.80;;;;;;4067475;29;20462;-75
2024/03/04 14:11:25;;;;;;;30.58;14.13;;;9.80;95.80;;;;;;4067276;29;20080;-75
2024/03/04 14:13:28;;;;;;;29.58;14.57;;;9.80;95.70;;;;;;4066748;29;20060;-78
2024/03/04 14:15:29;;;;;;;28.77;15.02;;;9.80;95.50;;;;;;4066837;29;20048;-78
2024/03/04 14:17:31;;;;;;;29.98;15.25;;;9.80;95.60;;;;;;4067241;29;20528;-81
2024/03/04 14:19:33;;;;;;;30.02;15.60;;;9.80;95.50;;;;;;4066430;29;20518;-78
2024/03/04 14:21:34;;;;;;;29.65;15.10;;;9.70;95.60;;;;;;4066938;29;20059;-81
2024/03/04 14:23:36;;;;;;;31.58;15.57;;;9.70;95.80;;;;;;4067501;29;20060;-79
2024/03/04 14:25:38;;;;;;;31.75;15.52;;;9.70;95.70;;;;;;4066530;29;20115;-79
2024/03/04 14:27:40;;;;;;;33.15;16.77;;;9.70;95.50;;;;;;4066701;29;20406;-79
2024/03/04 14:29:43;;;;;;;32.28;16.27;;;9.60;95.50;;;;;;4066533;29;20048;-79
2024/03/04 14:31:45;;;;;;;31.80;16.00;;;9.70;95.60;;;;;;4066352;29;20056;-78
2024/03/04 14:33:49;;;;;;;31.50;16.80;;;9.80;95.60;;;;;;4066319;29;20060;-78
2024/03/04 14:35:51;;;;;;;50.88;25.50;;;9.80;95.60;;;;;;4066591;29;20052;-79
2024/03/04 14:37:53;;;;;;;60.13;27.75;;;9.90;95.90;;;;;;4066041;29;20096;-77
2024/03/04 14:39:56;;;;;;;59.40;27.95;;;9.90;95.70;;;;;;4066518;29;20056;-77
2024/03/04 14:41:58;;;;;;;67.28;30.40;;;9.80;96.10;;;;;;4069436;29;20048;-79
2024/03/04 14:44:00;;;;;;;65.95;30.27;;;9.90;96.20;;;;;;4069449;29;20059;-78
2024/03/04 14:46:03;;;;;;;68.65;29.98;;;9.90;96.10;;;;;;4069187;29;20482;-77
2024/03/04 14:48:07;;;;;;;65.68;29.52;;;9.80;96.40;;;;;;4069051;29;20111;-80
2024/03/04 14:50:09;;;;;;;65.13;29.75;;;9.80;96.50;;;;;;4067193;29;20064;-79
2024/03/04 14:52:13;;;;;;;59.85;28.52;;;9.80;96.50;;;;;;4069088;29;20151;-80
2024/03/04 14:54:15;;;;;;;60.95;27.88;;;9.80;96.40;;;;;;4070515;29;20122;-77
2024/03/04 14:56:18;;;;;;;63.95;27.92;;;9.80;96.40;;;;;;4070912;29;20056;-79
2024/03/04 14:58:19;;;;;;;55.90;27.15;;;9.80;96.30;;;;;;4069087;29;20044;-79
2024/03/04 15:00:22;;;;;;;60.50;27.98;;;9.80;96.60;;;;;;4069265;29;20509;-80
2024/03/04 15:02:25;;;;;;;55.25;25.92;;;9.70;96.60;;;;;;4069346;29;20056;-79
2024/03/04 15:04:27;;;;;;;52.05;23.60;;;9.80;96.60;;;;;;4069014;29;20052;-78
2024/03/04 15:06:31;;;;;;;53.17;24.90;;;9.70;96.50;;;;;;4069425;29;20460;-79
2024/03/04 15:08:34;;;;;;;54.05;24.67;;;9.80;96.40;;;;;;4069459;29;20103;-79
2024/03/04 15:10:35;;;;;;;50.97;25.33;;;9.70;96.40;;;;;;4070575;29;20044;-77
2024/03/04 15:12:38;;;;;;;53.85;25.05;;;9.70;96.40;;;;;;4068432;29;20103;-79
2024/03/04 15:14:42;;;;;;;53.47;24.38;;;9.70;96.40;;;;;;4058257;29;20134;-78
2024/03/04 15:16:49;;;;;;;46.95;25.08;;;9.70;96.40;;;;;;4069764;29;20036;-78
2024/03/04 15:18:53;;;;;;;51.95;24.83;;;9.70;96.40;;;;;;4070722;29;20048;-80
2024/03/04 15:20:56;;;;;;;53.60;25.77;;;9.80;96.50;;;;;;4066070;29;20135;-79
2024/03/04 15:22:58;;;;;;;47.45;24.33;;;9.80;96.40;;;;;;4065116;29;20549;-78
2024/03/04 15:24:59;;;;;;;53.53;25.40;;;9.80;96.30;;;;;;4059902;29;20044;-79
2024/03/04 15:27:01;;;;;;;51.83;25.77;;;9.90;96.20;;;;;;4053609;29;20048;-80
2024/03/04 15:29:02;;;;;;;46.28;24.42;;;9.80;96.20;;;;;;4067020;29;20055;-78
2024/03/04 15:31:05;;;;;;;50.88;25.95;;;9.80;96.20;;;;;;4061393;29;20088;-77
2024/03/04 15:33:07;;;;;;;51.53;25.75;;;9.90;96.30;;;;;;4056598;29;20048;-79
2024/03/04 15:35:10;;;;;;;55.58;26.65;;;9.90;96.40;;;;;;4058893;29;20565;-78
2024/03/04 15:37:11;;;;;;;53.03;26.27;;;9.90;96.40;;;;;;4052900;29;20108;-79
2024/03/04 15:39:13;;;;;;;49.20;24.98;;;9.90;96.40;;;;;;4053210;29;20056;-76
2024/03/04 15:41:15;;;;;;;48.95;24.67;;;9.90;96.30;;;;;;4061232;29;20045;-78
2024/03/04 15:43:17;;;;;;;55.95;26.13;;;9.90;96.50;;;;;;4053240;29;20056;-78
2024/03/04 15:45:19;;;;;;;54.85;26.75;;;9.90;96.50;;;;;;4053451;29;20120;-79
2024/03/04 15:47:21;;;;;;;47.30;24.85;;;9.90;96.30;;;;;;4058445;29;20085;-79
2024/03/04 15:49:23;;;;;;;53.28;25.65;;;9.80;96.40;;;;;;4051163;29;20199;-80
2024/03/04 15:51:27;;;;;;;53.47;26.42;;;9.80;96.60;;;;;;4053203;29;20057;-80
2024/03/04 15:53:28;;;;;;;49.15;24.90;;;9.90;96.60;;;;;;4060337;29;20048;-79
2024/03/04 15:55:30;;;;;;;49.00;24.55;;;9.80;96.40;;;;;;4056719;29;20048;-78
2024/03/04 15:57:32;;;;;;;48.90;24.23;;;9.90;96.50;;;;;;4060484;29;20044;-79
2024/03/04 15:59:33;;;;;;;53.42;26.70;;;9.90;96.40;;;;;;4062504;29;20044;-77
2024/03/04 16:01:35;;;;;;;45.35;24.25;;;9.90;96.30;;;;;;4062053;29;20116;-76
2024/03/04 16:03:37;;;;;;;51.40;26.65;;;9.90;96.30;;;;;;4057659;29;20048;-79
2024/03/04 16:05:39;;;;;;;51.88;26.55;;;9.90;96.30;;;;;;4056110;29;20052;-80
2024/03/04 16:07:43;;;;;;;53.38;26.42;;;9.80;96.40;;;;;;4052312;29;20045;-78
2024/03/04 16:09:44;;;;;;;51.85;26.20;;;9.80;96.50;;;;;;4062530;29;20131;-79
2024/03/04 16:11:45;;;;;;;55.08;27.50;;;9.80;96.70;;;;;;4055077;29;20048;-80
2024/03/04 16:13:47;;;;;;;55.08;27.00;;;9.80;96.80;;;;;;4063078;29;20111;-79
2024/03/04 16:15:49;;;;;;;55.78;27.92;;;9.80;96.90;;;;;;4058033;29;20049;-78
2024/03/04 16:17:52;;;;;;;53.00;25.85;;;9.80;96.90;;;;;;4052529;29;20483;-80
2024/03/04 16:19:54;;;;;;;52.25;25.77;;;9.80;96.80;;;;;;4053955;29;20056;-80
2024/03/04 16:21:55;;;;;;;57.45;27.45;;;9.80;96.80;;;;;;4059596;29;20052;-79
2024/03/04 16:23:59;;;;;;;54.83;27.80;;;9.80;96.70;;;;;;4058344;29;20139;-79
2024/03/04 16:26:01;;;;;;;59.10;27.33;;;9.80;96.80;;;;;;4054334;29;20562;-80
2024/03/04 16:28:03;;;;;;;55.75;27.02;;;9.80;96.90;;;;;;4060611;29;20056;-80
2024/03/04 16:30:07;;;;;;;52.15;27.08;;;9.80;96.90;;;;;;4064050;29;20052;-80
2024/03/04 16:32:09;;;;;;;52.65;26.33;;;9.80;96.90;;;;;;4059171;29;20107;-79
2024/03/04 16:34:12;;;;;;;51.13;26.80;;;9.80;96.90;;;;;;4062100;29;20056;-79
2024/03/04 16:36:14;;;;;;;50.65;26.20;;;9.80;97.00;;;;;;4052371;29;20491;-80
2024/03/04 16:38:19;;;;;;;53.65;27.00;;;9.80;97.00;;;;;;4055529;29;20079;-81
2024/03/04 16:40:22;;;;;;;56.63;26.08;;;9.80;97.00;;;;;;4054832;29;20052;-80